createdAt,value
2023-04-18T00:00:48.841Z,62.42
2023-04-18T00:05:52.250Z,62.83
2023-04-18T00:10:55.787Z,62.29
2023-04-18T00:16:01.793Z,62.86
2023-04-18T00:21:05.881Z,62.83
2023-04-18T00:26:09.287Z,62.83
2023-04-18T00:31:14.546Z,62.76
2023-04-18T00:36:17.959Z,63.11
2023-04-18T00:41:25.517Z,62.96
2023-04-18T00:46:30.539Z,62.97
2023-04-18T00:51:35.462Z,63.49
2023-04-18T00:56:39.106Z,62.64
2023-04-18T01:01:45.157Z,62.85
2023-04-18T01:06:49.182Z,62.88
2023-04-18T01:11:52.727Z,63.50
2023-04-18T01:16:58.758Z,63.40
2023-04-18T01:22:02.256Z,63.08
2023-04-18T01:27:07.092Z,63.06
2023-04-18T01:32:10.561Z,63.14
2023-04-18T01:37:13.903Z,63.22
2023-04-18T01:42:18.798Z,63.14
2023-04-18T01:47:22.167Z,63.01
2023-04-18T01:52:26.197Z,63.00
2023-04-18T01:57:31.147Z,62.98
2023-04-18T02:02:35.029Z,62.73
2023-04-18T02:07:38.685Z,62.66
2023-04-18T02:12:44.164Z,62.61
2023-04-18T02:17:49.115Z,62.36
2023-04-18T02:22:53.174Z,62.72
2023-04-18T02:27:59.738Z,62.73
2023-04-18T02:33:03.296Z,62.40
2023-04-18T02:38:07.035Z,61.96
2023-04-18T02:43:11.932Z,62.49
2023-04-18T02:48:15.513Z,62.52
2023-04-18T02:53:23.850Z,62.28
2023-04-18T02:58:34.718Z,62.27
2023-04-18T03:03:58.415Z,63.03
2023-04-18T03:09:10.412Z,63.07
2023-04-18T03:14:21.395Z,62.87
2023-04-18T03:19:28.626Z,62.58
2023-04-18T03:24:35.672Z,62.51
2023-04-18T03:29:44.588Z,62.99
2023-04-18T03:34:48.672Z,62.64
2023-04-18T03:39:52.420Z,62.38
2023-04-18T03:44:58.522Z,62.38
2023-04-18T03:50:02.393Z,62.55
2023-04-18T03:55:07.883Z,62.93
2023-04-18T04:00:14.075Z,62.69
2023-04-18T04:05:20.127Z,63.47
2023-04-18T04:10:24.509Z,62.76
2023-04-18T04:15:29.917Z,63.37
2023-04-18T04:20:39.448Z,62.99
2023-04-18T04:33:04.251Z,62.49
2023-04-18T04:38:08.360Z,62.93
2023-04-18T04:43:20.525Z,63.21
2023-04-18T04:48:26.985Z,63.06
2023-04-18T04:53:31.492Z,63.13
2023-04-18T04:58:37.925Z,63.10
2023-04-18T05:04:13.003Z,63.01
2023-04-18T05:09:17.144Z,62.82
2023-04-18T05:14:20.786Z,62.90
2023-04-18T05:19:26.201Z,63.57
2023-04-18T05:24:29.858Z,63.40
2023-04-18T05:29:33.524Z,63.25
2023-04-18T05:34:38.934Z,63.52
2023-04-18T05:39:43.087Z,63.69
2023-04-18T05:44:46.549Z,63.61
2023-04-18T05:49:51.505Z,63.62
2023-04-18T05:54:54.862Z,63.42
2023-04-18T05:59:58.731Z,63.35
2023-04-18T06:05:03.821Z,63.27
2023-04-18T06:10:11.102Z,62.78
2023-04-18T06:15:14.481Z,62.83
2023-04-18T06:20:19.444Z,62.54
2023-04-18T06:25:22.902Z,62.68
2023-04-18T06:30:26.430Z,62.32
2023-04-18T06:35:32.386Z,62.36
2023-04-18T06:40:35.827Z,62.32
2023-04-18T06:45:39.544Z,62.77
2023-04-18T06:50:44.863Z,62.99
2023-04-18T06:55:48.261Z,62.80
2023-04-18T07:00:52.175Z,62.87
2023-04-18T07:05:57.067Z,63.14
2023-04-18T07:11:00.469Z,63.40
2023-04-18T07:16:04.292Z,62.88
2023-04-18T07:21:09.110Z,62.64
2023-04-18T07:26:13.734Z,62.51
2023-04-18T07:31:19.526Z,62.96
2023-04-18T07:36:24.303Z,62.82
2023-04-18T07:41:27.682Z,62.41
2023-04-18T07:46:32.377Z,62.74
2023-04-18T07:51:37.318Z,63.14
2023-04-18T07:56:41.040Z,62.99
2023-04-18T08:01:44.427Z,62.11
2023-04-18T08:06:49.206Z,61.97
2023-04-18T08:11:54.974Z,61.75
2023-04-18T08:16:58.506Z,62.62
2023-04-18T08:22:11.175Z,61.96
2023-04-18T08:27:14.639Z,60.78
2023-04-18T08:32:18.169Z,60.89
2023-04-18T08:37:22.978Z,60.56
2023-04-18T08:42:26.829Z,60.95
2023-04-18T08:47:31.200Z,59.34
2023-04-18T08:52:37.796Z,60.12
2023-04-18T08:57:41.231Z,59.08
2023-04-18T09:02:47.395Z,59.45
2023-04-18T09:07:54.068Z,59.89
2023-04-18T09:12:58.842Z,58.67
2023-04-18T09:18:03.483Z,59.06
2023-04-18T09:23:11.456Z,59.29
2023-04-18T09:28:27.078Z,58.93
2023-04-18T09:33:33.060Z,58.08
2023-04-18T09:38:41.638Z,58.33
2023-04-18T09:43:45.897Z,57.92
2023-04-18T09:48:49.346Z,58.77
2023-04-18T09:53:54.841Z,58.24
2023-04-18T09:59:04.623Z,58.33
2023-04-18T10:04:08.178Z,57.56
2023-04-18T10:09:14.936Z,57.39
2023-04-18T10:14:19.379Z,56.47
2023-04-18T10:19:24.732Z,57.08
2023-04-18T10:24:57.173Z,57.87
2023-04-18T10:30:00.618Z,55.78
2023-04-18T10:35:05.650Z,56.48
2023-04-18T10:40:11.219Z,55.36
2023-04-18T10:45:22.037Z,56.73
2023-04-18T10:50:25.956Z,56.52
2023-04-18T10:55:32.039Z,56.54
2023-04-18T11:00:35.848Z,53.81
2023-04-18T11:05:39.420Z,53.48
2023-04-18T11:10:57.441Z,53.28
2023-04-18T11:16:00.901Z,52.42
2023-04-18T11:21:04.630Z,53.69
2023-04-18T11:26:09.809Z,53.38
2023-04-18T11:31:16.664Z,53.56
2023-04-18T11:36:20.134Z,52.68
2023-04-18T11:41:24.928Z,52.47
2023-04-18T11:46:39.074Z,54.52
2023-04-18T11:51:46.254Z,53.16
2023-04-18T11:56:51.376Z,52.59
2023-04-18T12:02:14.878Z,53.68
2023-04-18T12:07:31.952Z,54.83
2023-04-18T12:12:37.541Z,53.87
2023-04-18T12:17:42.244Z,53.64
2023-04-18T12:22:47.380Z,52.94
2023-04-18T12:27:54.553Z,53.54
2023-04-18T12:32:59.720Z,53.84
2023-04-18T12:38:04.008Z,53.48
2023-04-18T12:43:10.442Z,52.71
2023-04-18T12:48:14.697Z,50.84
2023-04-18T12:53:18.084Z,50.91
2023-04-18T12:58:22.973Z,50.68
2023-04-18T13:03:27.096Z,49.81
2023-04-18T13:08:30.561Z,49.02
2023-04-18T13:13:35.795Z,49.31
2023-04-18T13:18:39.267Z,48.86
2023-04-18T13:23:42.610Z,49.22
2023-04-18T13:28:47.379Z,49.85
2023-04-18T13:33:50.865Z,49.31
2023-04-18T13:38:54.455Z,48.30
2023-04-18T13:43:59.104Z,48.54
2023-04-18T13:49:02.475Z,47.56
2023-04-18T13:54:06.045Z,48.11
2023-04-18T13:59:10.882Z,48.95
2023-04-18T14:04:14.462Z,47.43
2023-04-18T14:09:18.786Z,47.90
2023-04-18T14:14:23.762Z,47.93
2023-04-18T14:19:28.115Z,47.71
2023-04-18T14:24:31.753Z,48.26
2023-04-18T14:29:36.532Z,47.84
2023-04-18T14:34:39.962Z,47.90
2023-04-18T14:39:43.426Z,47.31
2023-04-18T14:44:48.334Z,47.12
2023-04-18T14:49:51.776Z,47.18
2023-04-18T14:54:55.395Z,47.34
2023-04-18T15:00:04.186Z,48.86
2023-04-18T15:05:08.585Z,47.15
2023-04-18T15:10:15.109Z,47.50
2023-04-18T15:15:20.836Z,47.94
2023-04-18T15:20:24.378Z,47.69
2023-04-18T15:25:27.830Z,47.34
2023-04-18T15:30:32.766Z,48.78
2023-04-18T15:35:36.172Z,47.77
2023-04-18T15:40:39.616Z,48.40
2023-04-18T15:45:45.065Z,47.80
2023-04-18T15:50:52.078Z,48.60
2023-04-18T15:55:55.552Z,47.84
2023-04-18T16:01:00.556Z,47.35
2023-04-18T16:06:04.588Z,47.80
2023-04-18T16:11:08.315Z,48.51
2023-04-18T16:16:13.221Z,48.43
2023-04-18T16:21:17.364Z,47.48
2023-04-18T16:26:21.299Z,48.12
2023-04-18T16:31:28.453Z,48.22
2023-04-18T16:36:34.193Z,48.16
2023-04-18T16:41:37.551Z,48.40
2023-04-18T16:46:42.500Z,49.15
2023-04-18T16:51:46.035Z,48.74
2023-04-18T16:56:49.608Z,48.93
2023-04-18T17:01:54.740Z,48.98
2023-04-18T17:06:58.475Z,48.96
2023-04-18T17:12:02.098Z,48.97
2023-04-18T17:17:07.404Z,49.29
2023-04-18T17:22:11.037Z,49.39
2023-04-18T17:27:14.395Z,49.75
2023-04-18T17:32:19.189Z,49.63
2023-04-18T17:37:23.199Z,49.87
2023-04-18T17:42:26.835Z,49.70
2023-04-18T17:47:33.509Z,49.54
2023-04-18T17:52:37.349Z,49.79
2023-04-18T17:57:40.687Z,50.42
2023-04-18T18:02:46.193Z,50.79
2023-04-18T18:07:49.902Z,50.28
2023-04-18T18:12:54.271Z,50.63
2023-04-18T18:17:59.403Z,50.59
2023-04-18T18:23:02.970Z,50.80
2023-04-18T18:28:07.200Z,51.57
2023-04-18T18:33:12.110Z,51.72
2023-04-18T18:38:15.512Z,51.17
2023-04-18T18:43:18.907Z,51.96
2023-04-18T18:48:24.777Z,51.60
2023-04-18T18:53:28.419Z,51.96
2023-04-18T18:58:31.859Z,51.48
2023-04-18T19:03:37.115Z,52.36
2023-04-18T19:08:40.570Z,51.93
2023-04-18T19:13:43.980Z,52.26
2023-04-18T19:18:50.647Z,52.63
2023-04-18T19:23:54.196Z,52.99
2023-04-18T19:28:57.699Z,53.03
2023-04-18T19:34:03.124Z,53.01
2023-04-18T19:39:06.646Z,53.60
2023-04-18T19:44:10.053Z,53.16
2023-04-18T19:49:15.137Z,53.60
2023-04-18T19:54:21.648Z,53.63
2023-04-18T19:59:25.676Z,53.84
2023-04-18T20:04:31.449Z,54.17
2023-04-18T20:09:35.156Z,54.16
2023-04-18T21:31:21.438Z,56.46
2023-04-18T21:36:28.280Z,55.98
2023-04-18T21:41:31.647Z,56.04
2023-04-18T21:46:36.366Z,56.35
2023-04-18T21:51:39.836Z,56.70
2023-04-18T21:56:46.247Z,56.24
2023-04-18T22:01:52.065Z,56.66
2023-04-18T22:06:57.475Z,55.59
2023-04-18T22:12:04.298Z,56.36
2023-04-18T22:17:09.212Z,56.56
2023-04-18T22:22:12.625Z,56.65
2023-04-18T22:27:16.345Z,56.97
2023-04-18T22:32:21.158Z,56.55
2023-04-18T22:37:26.766Z,56.62
2023-04-18T22:42:30.380Z,57.69
2023-04-18T22:47:35.770Z,57.71
2023-04-18T22:52:39.171Z,57.22
2023-04-18T22:57:42.783Z,57.48
2023-04-18T23:02:47.795Z,57.75
2023-04-18T23:07:51.310Z,57.50
2023-04-18T23:12:54.709Z,57.22
2023-04-18T23:17:59.513Z,57.36
2023-04-18T23:23:03.437Z,57.15
2023-04-18T23:28:06.921Z,57.81
2023-04-18T23:33:11.698Z,57.70
2023-04-18T23:38:15.155Z,57.74
2023-04-18T23:43:18.715Z,57.53
2023-04-18T23:48:24.635Z,57.94
2023-04-18T23:53:28.000Z,58.36
2023-04-18T23:58:31.830Z,58.29
